Time;durP1;ratioP1;P1;durP2;ratioP2;P2;SDS_P1;SDS_P2;PMS_P1;PMS_P2;Temp;Humidity;BMP_temperature;BMP_pressure;BME280_temperature;BME280_humidity;BME280_pressure;Samples;Min_cycle;Max_cycle;Signal;HPM_P1;HPM_P2
2022/08/04 00:01:11;;;;;;;;;;;21.30;99.90;;;;;;4590528;19;19915;-33
2022/08/04 00:02:55;;;;;;;;;;;21.30;99.90;;;;;;4589683;19;19928;-32
2022/08/04 00:04:31;;;;;;;;;;;21.30;99.90;;;;;;4590291;19;19914;-34
2022/08/04 00:06:03;;;;;;;;;;;21.30;99.90;;;;;;4589816;19;19919;-34
2022/08/04 00:07:35;;;;;;;;;;;21.30;99.90;;;;;;4590407;19;19943;-32
2022/08/04 00:09:16;;;;;;;;;;;21.30;99.90;;;;;;4591119;19;19922;-32
2022/08/04 00:10:48;;;;;;;;;;;21.30;99.90;;;;;;4590468;19;19922;-32
2022/08/04 00:12:19;;;;;;;;;;;21.30;99.90;;;;;;4589928;19;19914;-32
2022/08/04 00:13:54;;;;;;;;;;;21.30;99.90;;;;;;4589619;19;19919;-32
2022/08/04 00:15:25;;;;;;;;;;;21.30;99.90;;;;;;4589695;19;20354;-35
2022/08/04 00:16:56;;;;;;;;;;;21.20;99.90;;;;;;4589561;19;19935;-32
2022/08/04 00:18:34;;;;;;;;;;;21.20;99.90;;;;;;4589840;19;19922;-32
2022/08/04 00:20:06;;;;;;;;;;;21.20;99.90;;;;;;4590964;19;19923;-32
2022/08/04 00:21:37;;;;;;;;;;;21.20;99.90;;;;;;4590458;19;19923;-33
2022/08/04 00:23:08;;;;;;;;;;;21.20;99.90;;;;;;4589094;19;19919;-32
2022/08/04 00:24:39;;;;;;;;;;;21.20;99.90;;;;;;4590195;19;19919;-32
2022/08/04 00:26:10;;;;;;;;;;;21.20;99.90;;;;;;4590384;19;20267;-32
2022/08/04 00:27:41;;;;;;;;;;;21.20;99.90;;;;;;4590569;19;19914;-33
2022/08/04 00:29:12;;;;;;;;;;;21.20;99.90;;;;;;4590223;19;19975;-32
2022/08/04 00:30:43;;;;;;;;;;;21.10;99.90;;;;;;4589804;19;19940;-35
2022/08/04 00:32:14;;;;;;;;;;;21.10;99.90;;;;;;4590184;19;19971;-32
2022/08/04 00:33:45;;;;;;;;;;;21.10;99.90;;;;;;4589296;19;19918;-32
2022/08/04 00:35:16;;;;;;;;;;;21.10;99.90;;;;;;4594521;19;20277;-32
2022/08/04 00:36:46;;;;;;;;;;;21.10;99.90;;;;;;4594281;19;19915;-33
2022/08/04 00:38:18;;;;;;;;;;;21.10;99.90;;;;;;4595025;19;20253;-35
2022/08/04 00:39:49;;;;;;;;;;;21.10;99.90;;;;;;4593275;19;19918;-33
2022/08/04 00:41:31;;;;;;;;;;;21.10;99.90;;;;;;4593524;19;19987;-32
2022/08/04 00:43:05;;;;;;;;;;;21.10;99.90;;;;;;4594207;19;20329;-33
2022/08/04 00:44:42;;;;;;;;;;;21.20;99.90;;;;;;4593610;19;19918;-32
2022/08/04 00:46:32;;;;;;;;;;;21.10;99.90;;;;;;4594072;19;19918;-35
2022/08/04 00:48:24;;;;;;;;;;;21.10;99.90;;;;;;4594183;19;19915;-32
2022/08/04 00:49:59;;;;;;;;;;;21.10;99.90;;;;;;4593402;19;19935;-33
2022/08/04 00:51:39;;;;;;;;;;;21.10;99.90;;;;;;4594411;19;19925;-32
2022/08/04 00:53:13;;;;;;;;;;;21.10;99.90;;;;;;4594761;19;19919;-33
2022/08/04 00:54:56;;;;;;;;;;;21.00;99.90;;;;;;4594109;19;20249;-35
2022/08/04 00:56:41;;;;;;;;;;;21.00;99.90;;;;;;4594299;19;19919;-35
2022/08/04 00:58:18;;;;;;;;;;;21.00;99.90;;;;;;4594331;19;19918;-34
2022/08/04 00:59:54;;;;;;;;;;;21.00;99.90;;;;;;4594314;19;19919;-32
2022/08/04 01:01:40;;;;;;;;;;;21.00;99.90;;;;;;4594768;19;19915;-34
2022/08/04 01:03:22;;;;;;;;;;;21.00;99.90;;;;;;4594713;19;19956;-32
2022/08/04 01:04:56;;;;;;;;;;;21.00;99.90;;;;;;4593876;19;19990;-34
2022/08/04 01:06:41;;;;;;;;;;;21.00;99.90;;;;;;4593979;19;19915;-33
2022/08/04 01:08:24;;;;;;;;;;;21.00;99.90;;;;;;4594114;19;20000;-32
2022/08/04 01:10:14;;;;;;;;;;;20.90;99.90;;;;;;4594219;19;19914;-34
2022/08/04 01:12:00;;;;;;;;;;;20.90;99.90;;;;;;4594434;19;19915;-33
2022/08/04 01:13:51;;;;;;;;;;;20.90;99.90;;;;;;4594297;19;19911;-32
2022/08/04 01:15:24;;;;;;;;;;;20.90;99.90;;;;;;4592832;19;20307;-34
2022/08/04 01:16:57;;;;;;;;;;;20.90;99.90;;;;;;4592583;19;19914;-34
2022/08/04 01:18:43;;;;;;;;;;;20.90;99.90;;;;;;4593964;19;20317;-33
2022/08/04 01:20:16;;;;;;;;;;;20.90;99.90;;;;;;4593832;19;19919;-33
2022/08/04 01:22:13;;;;;;;;;;;20.90;99.90;;;;;;4593531;19;20257;-32
2022/08/04 01:24:02;;;;;;;;;;;20.90;99.90;;;;;;4591044;19;19914;-35
2022/08/04 01:25:52;;;;;;;;;;;20.90;99.90;;;;;;4591468;19;19923;-33
2022/08/04 01:27:26;;;;;;;;;;;20.90;99.90;;;;;;4591556;19;19914;-33
2022/08/04 01:29:04;;;;;;;;;;;20.90;99.90;;;;;;4591303;19;19924;-33
2022/08/04 01:30:35;;;;;;;;;;;20.90;99.90;;;;;;4591650;19;19918;-32
2022/08/04 01:32:06;;;;;;;;;;;20.90;99.90;;;;;;4590693;19;19930;-32
2022/08/04 01:33:37;;;;;;;;;;;20.90;99.90;;;;;;4591240;19;20284;-32
2022/08/04 01:35:24;;;;;;;;;;;20.90;99.90;;;;;;4591157;19;19919;-33
2022/08/04 01:36:55;;;;;;;;;;;20.90;99.90;;;;;;4591360;19;19918;-35
2022/08/04 01:38:32;;;;;;;;;;;20.90;99.90;;;;;;4592030;19;19949;-33
2022/08/04 01:40:06;;;;;;;;;;;20.90;99.90;;;;;;4591015;19;20265;-35
2022/08/04 01:41:37;;;;;;;;;;;20.90;99.90;;;;;;4591023;19;19945;-32
2022/08/04 01:43:08;;;;;;;;;;;20.80;99.90;;;;;;4591489;19;20414;-32
2022/08/04 01:44:39;;;;;;;;;;;20.90;99.90;;;;;;4591212;19;19919;-32
2022/08/04 01:46:11;;;;;;;;;;;20.90;99.90;;;;;;4589772;19;20329;-32
2022/08/04 01:47:47;;;;;;;;;;;20.90;99.90;;;;;;4591368;19;19925;-32
2022/08/04 01:49:19;;;;;;;;;;;20.90;99.90;;;;;;4591677;19;19914;-34
2022/08/04 01:50:50;;;;;;;;;;;20.80;99.90;;;;;;4589531;19;19927;-33
2022/08/04 01:52:21;;;;;;;;;;;20.80;99.90;;;;;;4589876;19;19923;-32
2022/08/04 01:53:52;;;;;;;;;;;20.80;99.90;;;;;;4591098;19;20022;-33
2022/08/04 01:55:23;;;;;;;;;;;20.80;99.90;;;;;;4591587;19;19919;-32
2022/08/04 01:56:55;;;;;;;;;;;20.80;99.90;;;;;;4590987;19;20011;-32
2022/08/04 01:58:27;;;;;;;;;;;20.80;99.90;;;;;;4591068;19;19915;-33
2022/08/04 01:59:58;;;;;;;;;;;20.80;99.90;;;;;;4590683;19;20011;-31
2022/08/04 02:01:31;;;;;;;;;;;20.80;99.90;;;;;;4592549;19;19926;-33
2022/08/04 02:03:02;;;;;;;;;;;20.80;99.90;;;;;;4591622;19;19922;-32
2022/08/04 02:04:34;;;;;;;;;;;20.80;99.90;;;;;;4592806;19;19919;-32
2022/08/04 02:06:08;;;;;;;;;;;20.80;99.90;;;;;;4591702;19;20313;-35
2022/08/04 02:07:42;;;;;;;;;;;20.80;99.90;;;;;;4592459;19;19978;-33
2022/08/04 02:09:31;;;;;;;;;;;20.80;99.90;;;;;;4592681;19;20281;-32
2022/08/04 02:11:05;;;;;;;;;;;20.80;99.90;;;;;;4592807;19;19938;-32
2022/08/04 02:12:47;;;;;;;;;;;20.80;99.90;;;;;;4592262;19;20230;-32
2022/08/04 02:14:39;;;;;;;;;;;20.80;99.90;;;;;;4592172;19;19923;-32
2022/08/04 02:16:12;;;;;;;;;;;20.80;99.90;;;;;;4591464;19;19919;-33
2022/08/04 02:17:43;;;;;;;;;;;20.70;99.90;;;;;;4592104;19;20325;-32
2022/08/04 02:19:23;;;;;;;;;;;20.80;99.90;;;;;;4592642;19;19918;-32
2022/08/04 02:20:58;;;;;;;;;;;20.80;99.90;;;;;;4592949;19;20332;-32
2022/08/04 02:22:29;;;;;;;;;;;20.70;99.90;;;;;;4591879;19;19942;-32
2022/08/04 02:24:11;;;;;;;;;;;20.70;99.90;;;;;;4591370;19;19967;-35
2022/08/04 02:25:45;;;;;;;;;;;20.70;99.90;;;;;;4592301;19;20329;-32
2022/08/04 02:27:18;;;;;;;;;;;20.70;99.90;;;;;;4592807;19;19974;-32
2022/08/04 02:28:49;;;;;;;;;;;20.70;99.90;;;;;;4591774;19;20306;-32
2022/08/04 02:30:19;;;;;;;;;;;20.70;99.90;;;;;;4591901;19;19915;-33
2022/08/04 02:32:14;;;;;;;;;;;20.70;99.90;;;;;;4591229;19;19977;-33
2022/08/04 02:33:45;;;;;;;;;;;20.70;99.90;;;;;;4591597;19;19971;-32
2022/08/04 02:35:19;;;;;;;;;;;20.70;99.90;;;;;;4591751;19;19974;-33
2022/08/04 02:36:50;;;;;;;;;;;20.70;99.90;;;;;;4591964;19;20326;-32
2022/08/04 02:38:48;;;;;;;;;;;20.70;99.90;;;;;;4590743;19;19923;-33
2022/08/04 02:40:19;;;;;;;;;;;20.70;99.90;;;;;;4589498;19;19923;-31
2022/08/04 02:41:50;;;;;;;;;;;20.70;99.90;;;;;;4590140;19;19915;-32
2022/08/04 02:43:22;;;;;;;;;;;20.70;99.90;;;;;;4590421;19;19935;-32
2022/08/04 02:44:52;;;;;;;;;;;20.70;99.90;;;;;;4589637;19;19918;-34
2022/08/04 02:46:24;;;;;;;;;;;20.70;99.90;;;;;;4589924;19;19978;-32
2022/08/04 02:47:55;;;;;;;;;;;20.70;99.90;;;;;;4589571;19;19911;-32
2022/08/04 02:49:26;;;;;;;;;;;20.70;99.90;;;;;;4590529;19;20257;-32
2022/08/04 02:50:56;;;;;;;;;;;20.70;99.90;;;;;;4588585;19;19918;-34
2022/08/04 02:52:28;;;;;;;;;;;20.70;99.90;;;;;;4588692;19;20043;-32
2022/08/04 02:53:59;;;;;;;;;;;20.70;99.90;;;;;;4590039;19;19915;-32
2022/08/04 02:55:29;;;;;;;;;;;20.70;99.90;;;;;;4590019;19;19922;-34
2022/08/04 02:57:01;;;;;;;;;;;20.70;99.90;;;;;;4588881;19;19946;-33
2022/08/04 02:58:33;;;;;;;;;;;20.70;99.90;;;;;;4587930;19;19959;-33
2022/08/04 03:00:14;;;;;;;;;;;20.70;99.90;;;;;;4589882;19;19917;-31
2022/08/04 03:01:45;;;;;;;;;;;20.70;99.90;;;;;;4589488;19;19919;-32
2022/08/04 03:03:22;;;;;;;;;;;20.70;99.90;;;;;;4589514;19;19926;-33
2022/08/04 03:04:57;;;;;;;;;;;20.70;99.90;;;;;;4589320;19;19927;-32
2022/08/04 03:06:34;;;;;;;;;;;20.70;99.90;;;;;;4589469;19;20256;-32
2022/08/04 03:08:23;;;;;;;;;;;20.70;99.90;;;;;;4589875;19;19926;-31
2022/08/04 03:10:13;;;;;;;;;;;20.70;99.90;;;;;;4589544;19;19978;-32
2022/08/04 03:11:47;;;;;;;;;;;20.70;99.90;;;;;;4589091;19;19943;-33
2022/08/04 03:13:27;;;;;;;;;;;20.70;99.90;;;;;;4589506;19;19918;-32
2022/08/04 03:15:13;;;;;;;;;;;20.70;99.90;;;;;;4589573;19;19922;-33
2022/08/04 03:17:02;;;;;;;;;;;20.60;99.90;;;;;;4589304;19;19918;-33
2022/08/04 03:18:42;;;;;;;;;;;20.60;99.90;;;;;;4591720;19;20309;-32
2022/08/04 03:20:32;;;;;;;;;;;20.60;99.90;;;;;;4591247;19;19967;-34
2022/08/04 03:22:05;;;;;;;;;;;20.60;99.90;;;;;;4591268;19;19926;-32
2022/08/04 03:23:44;;;;;;;;;;;20.70;99.90;;;;;;4591622;19;20325;-32
2022/08/04 03:25:34;;;;;;;;;;;20.60;99.90;;;;;;4590033;19;20333;-33
2022/08/04 03:27:11;;;;;;;;;;;20.60;99.90;;;;;;4591163;19;19986;-35
2022/08/04 03:28:42;;;;;;;;;;;20.60;99.90;;;;;;4591013;19;19922;-33
2022/08/04 03:30:19;;;;;;;;;;;20.60;99.90;;;;;;4589892;19;19990;-32
2022/08/04 03:31:53;;;;;;;;;;;20.60;99.90;;;;;;4589795;19;19975;-32
2022/08/04 03:33:24;;;;;;;;;;;20.60;99.90;;;;;;4591263;19;20313;-36
2022/08/04 03:35:30;;;;;;;;;;;20.60;99.90;;;;;;4590743;19;19928;-32
2022/08/04 03:37:01;;;;;;;;;;;20.60;99.90;;;;;;4588752;19;20360;-33
2022/08/04 03:38:44;;;;;;;;;;;20.60;99.90;;;;;;4588957;19;19919;-33
2022/08/04 03:40:34;;;;;;;;;;;20.60;99.90;;;;;;4589279;19;19915;-32
2022/08/04 03:42:11;;;;;;;;;;;20.60;99.90;;;;;;4589072;19;19919;-32
2022/08/04 03:44:01;;;;;;;;;;;20.60;99.90;;;;;;4589177;19;19917;-32
2022/08/04 03:45:35;;;;;;;;;;;20.60;99.90;;;;;;4589130;19;19938;-33
2022/08/04 03:47:24;;;;;;;;;;;20.60;99.90;;;;;;4588611;19;19966;-32
2022/08/04 03:49:14;;;;;;;;;;;20.60;99.90;;;;;;4588818;19;19919;-32
2022/08/04 03:53:07;;;;;;;;;;;20.60;99.90;;;;;;4587527;19;19926;-32
2022/08/04 03:53:09;;;;;;;;;;;20.60;99.90;;;;;;4586020;19;20212;-33
2022/08/04 03:54:43;;;;;;;;;;;20.60;99.90;;;;;;4588042;19;19919;-32
2022/08/04 03:56:19;;;;;;;;;;;20.60;99.90;;;;;;4591059;19;19914;-32
2022/08/04 03:58:08;;;;;;;;;;;20.60;99.90;;;;;;4588572;19;19939;-34
2022/08/04 04:00:03;;;;;;;;;;;20.60;99.90;;;;;;4588152;19;19918;-35
2022/08/04 04:01:37;;;;;;;;;;;20.60;99.90;;;;;;4588464;19;19919;-32
2022/08/04 04:03:35;;;;;;;;;;;20.60;99.90;;;;;;4588394;19;19951;-32
2022/08/04 04:05:29;;;;;;;;;;;20.60;99.90;;;;;;4586877;19;19915;-32
2022/08/04 04:07:24;;;;;;;;;;;20.60;99.90;;;;;;4586837;19;19986;-32
2022/08/04 04:09:19;;;;;;;;;;;20.50;99.90;;;;;;4588854;19;20302;-32
2022/08/04 04:12:08;;;;;;;;;;;20.00;99.90;;;;;;4591241;19;19919;-32
2022/08/04 04:13:58;;;;;;;;;;;19.70;99.90;;;;;;4592709;19;19978;-32
2022/08/04 04:15:47;;;;;;;;;;;19.50;99.90;;;;;;4593079;19;19930;-35
2022/08/04 04:17:37;;;;;;;;;;;19.50;99.90;;;;;;4592826;19;20393;-33
2022/08/04 04:19:17;;;;;;;;;;;19.40;99.90;;;;;;4592948;19;19928;-32
2022/08/04 04:20:48;;;;;;;;;;;19.40;99.90;;;;;;4592531;19;19971;-34
2022/08/04 04:22:25;;;;;;;;;;;19.40;99.90;;;;;;4592611;19;19926;-32
2022/08/04 04:24:09;;;;;;;;;;;19.30;99.90;;;;;;4593060;19;20302;-33
2022/08/04 04:25:58;;;;;;;;;;;19.40;99.90;;;;;;4592352;19;19941;-33
2022/08/04 04:27:29;;;;;;;;;;;19.30;99.90;;;;;;4592686;19;19915;-32
2022/08/04 04:29:18;;;;;;;;;;;19.30;99.90;;;;;;4592189;19;20247;-32
2022/08/04 04:31:01;;;;;;;;;;;19.30;99.90;;;;;;4592860;19;19914;-32
2022/08/04 04:32:32;;;;;;;;;;;19.30;99.90;;;;;;4591341;19;19918;-32
2022/08/04 04:34:12;;;;;;;;;;;19.30;99.90;;;;;;4592688;19;20297;-35
2022/08/04 04:35:48;;;;;;;;;;;19.30;99.90;;;;;;4592457;19;20314;-33
2022/08/04 04:37:24;;;;;;;;;;;19.30;99.90;;;;;;4592351;19;19994;-33
2022/08/04 04:38:58;;;;;;;;;;;19.30;99.90;;;;;;4592188;19;19926;-34
2022/08/04 04:40:48;;;;;;;;;;;19.30;99.90;;;;;;4592997;19;19939;-33
2022/08/04 04:42:38;;;;;;;;;;;19.40;99.90;;;;;;4592218;19;19926;-33
2022/08/04 04:44:38;;;;;;;;;;;19.40;99.90;;;;;;4594375;19;19910;-33
2022/08/04 04:46:30;;;;;;;;;;;19.30;99.90;;;;;;4592643;19;19924;-32
2022/08/04 04:48:13;;;;;;;;;;;19.30;99.90;;;;;;4592382;19;19927;-33
2022/08/04 04:49:48;;;;;;;;;;;19.30;99.90;;;;;;4591824;19;19938;-36
2022/08/04 04:51:22;;;;;;;;;;;19.30;99.90;;;;;;4592512;19;19907;-34
2022/08/04 04:52:54;;;;;;;;;;;19.30;99.90;;;;;;4590222;19;19918;-32
2022/08/04 04:54:28;;;;;;;;;;;19.30;99.90;;;;;;4591771;19;19917;-32
2022/08/04 04:56:02;;;;;;;;;;;19.40;99.90;;;;;;4591176;19;19929;-33
2022/08/04 04:57:34;;;;;;;;;;;19.40;99.90;;;;;;4590980;19;19934;-33
2022/08/04 04:59:07;;;;;;;;;;;19.40;99.90;;;;;;4590381;19;19914;-33
2022/08/04 05:00:56;;;;;;;;;;;19.40;99.90;;;;;;4590834;19;19937;-33
2022/08/04 05:02:33;;;;;;;;;;;19.40;99.90;;;;;;4590591;19;19935;-35
2022/08/04 05:04:07;;;;;;;;;;;19.40;99.90;;;;;;4590363;19;19946;-35
2022/08/04 05:05:56;;;;;;;;;;;19.40;99.90;;;;;;4590135;19;19982;-32
2022/08/04 05:07:38;;;;;;;;;;;19.40;99.90;;;;;;4590023;19;19911;-33
2022/08/04 05:09:17;;;;;;;;;;;19.40;99.90;;;;;;4590834;19;19915;-33
2022/08/04 05:11:08;;;;;;;;;;;19.40;99.90;;;;;;4590038;19;20496;-32
2022/08/04 05:12:39;;;;;;;;;;;19.40;99.90;;;;;;4589638;19;19956;-33
2022/08/04 05:14:11;;;;;;;;;;;19.40;99.90;;;;;;4592047;19;20001;-34
2022/08/04 05:15:42;;;;;;;;;;;19.40;99.90;;;;;;4591409;19;19911;-32
2022/08/04 05:17:22;;;;;;;;;;;19.40;99.90;;;;;;4590993;19;19928;-32
2022/08/04 05:19:13;;;;;;;;;;;19.40;99.90;;;;;;4591295;19;19947;-34
2022/08/04 05:20:45;;;;;;;;;;;19.40;99.90;;;;;;4588650;19;19943;-33
2022/08/04 05:22:36;;;;;;;;;;;19.40;99.90;;;;;;4591378;19;19915;-32
2022/08/04 05:24:08;;;;;;;;;;;19.50;99.90;;;;;;4591002;19;19940;-32
2022/08/04 05:25:42;;;;;;;;;;;19.50;99.90;;;;;;4593049;19;19986;-34
2022/08/04 05:27:15;;;;;;;;;;;19.50;99.90;;;;;;4592908;19;19926;-33
2022/08/04 05:28:53;;;;;;;;;;;19.50;99.90;;;;;;4592501;19;19918;-34
2022/08/04 05:30:24;;;;;;;;;;;19.50;99.90;;;;;;4593115;19;19970;-32
2022/08/04 05:31:56;;;;;;;;;;;19.50;99.90;;;;;;4593663;19;19922;-33
2022/08/04 05:33:37;;;;;;;;;;;19.50;99.90;;;;;;4592641;19;20001;-32
2022/08/04 05:35:09;;;;;;;;;;;19.60;99.90;;;;;;4590996;19;19929;-34
2022/08/04 05:36:42;;;;;;;;;;;19.60;99.90;;;;;;4591121;19;19937;-33
2022/08/04 05:38:13;;;;;;;;;;;19.60;99.90;;;;;;4592271;19;19970;-32
2022/08/04 05:39:55;;;;;;;;;;;19.60;99.90;;;;;;4590787;19;19923;-32
2022/08/04 05:41:27;;;;;;;;;;;19.60;99.90;;;;;;4590648;19;19996;-35
2022/08/04 05:42:57;;;;;;;;;;;19.60;99.90;;;;;;4591162;19;19918;-33
2022/08/04 05:44:30;;;;;;;;;;;19.60;99.90;;;;;;4594642;19;19970;-33
2022/08/04 05:46:02;;;;;;;;;;;19.60;99.90;;;;;;4594015;19;19926;-33
2022/08/04 05:47:32;;;;;;;;;;;19.60;99.90;;;;;;4592549;19;19914;-33
2022/08/04 05:49:03;;;;;;;;;;;19.60;99.90;;;;;;4592988;19;19923;-33
2022/08/04 05:50:34;;;;;;;;;;;19.60;99.90;;;;;;4591974;19;19922;-32
2022/08/04 05:52:05;;;;;;;;;;;19.60;99.90;;;;;;4591587;19;20267;-33
2022/08/04 05:53:37;;;;;;;;;;;19.50;99.90;;;;;;4592485;19;20338;-32
2022/08/04 05:55:08;;;;;;;;;;;19.60;99.90;;;;;;4591742;19;20325;-30
2022/08/04 05:56:39;;;;;;;;;;;19.60;99.90;;;;;;4590963;19;19919;-31
2022/08/04 05:58:10;;;;;;;;;;;19.70;99.90;;;;;;4590496;19;20386;-32
2022/08/04 05:59:45;;;;;;;;;;;19.90;99.90;;;;;;4591784;19;19927;-31
2022/08/04 06:01:16;;;;;;;;;;;20.10;99.90;;;;;;4592192;19;20671;-32
2022/08/04 06:02:47;;;;;;;;;;;20.30;99.90;;;;;;4592745;19;19919;-33
2022/08/04 06:04:18;;;;;;;;;;;20.50;99.90;;;;;;4592920;19;19986;-32
2022/08/04 06:05:49;;;;;;;;;;;20.70;99.90;;;;;;4592345;19;19942;-32
2022/08/04 06:07:20;;;;;;;;;;;20.80;99.90;;;;;;4592580;19;19918;-37
2022/08/04 06:08:51;;;;;;;;;;;20.90;99.90;;;;;;4591726;19;19943;-34
2022/08/04 06:10:23;;;;;;;;;;;21.00;99.90;;;;;;4593215;19;19938;-32
2022/08/04 06:11:54;;;;;;;;;;;21.10;99.90;;;;;;4592425;19;19921;-31
2022/08/04 06:13:25;;;;;;;;;;;21.20;99.90;;;;;;4590534;19;19915;-31
2022/08/04 06:14:56;;;;;;;;;;;21.40;99.90;;;;;;4591337;19;20007;-31
2022/08/04 06:16:34;;;;;;;;;;;21.40;99.90;;;;;;4591782;19;20222;-34
2022/08/04 06:18:05;;;;;;;;;;;21.50;99.90;;;;;;4592104;19;19938;-32
2022/08/04 06:19:36;;;;;;;;;;;21.60;99.90;;;;;;4591300;19;20258;-33
2022/08/04 06:21:07;;;;;;;;;;;21.70;99.90;;;;;;4592348;19;19911;-33
2022/08/04 06:22:39;;;;;;;;;;;21.80;99.90;;;;;;4591571;19;19993;-33
2022/08/04 06:24:11;;;;;;;;;;;21.80;99.90;;;;;;4592315;19;20462;-33
2022/08/04 06:25:42;;;;;;;;;;;21.90;99.90;;;;;;4591566;19;19915;-30
2022/08/04 06:27:13;;;;;;;;;;;22.00;99.90;;;;;;4593530;19;19919;-33
2022/08/04 06:28:46;;;;;;;;;;;22.00;99.90;;;;;;4591409;19;19915;-32
2022/08/04 06:30:18;;;;;;;;;;;22.00;99.90;;;;;;4592364;19;19918;-32
2022/08/04 06:31:57;;;;;;;;;;;22.00;99.90;;;;;;4590827;19;19919;-34
2022/08/04 06:33:33;;;;;;;;;;;21.90;99.90;;;;;;4589714;19;19914;-32
2022/08/04 06:35:05;;;;;;;;;;;21.80;99.90;;;;;;4590921;19;19982;-33
2022/08/04 06:36:36;;;;;;;;;;;21.90;99.90;;;;;;4592265;19;19915;-32
2022/08/04 06:38:07;;;;;;;;;;;22.10;99.90;;;;;;4592015;19;19964;-32
2022/08/04 06:39:38;;;;;;;;;;;22.20;99.90;;;;;;4592027;19;19919;-32
2022/08/04 06:41:11;;;;;;;;;;;22.00;99.90;;;;;;4591486;19;19936;-33
2022/08/04 06:42:42;;;;;;;;;;;22.00;99.90;;;;;;4592305;19;19974;-36
2022/08/04 06:44:13;;;;;;;;;;;21.90;99.90;;;;;;4588578;19;19919;-32
2022/08/04 06:45:44;;;;;;;;;;;21.80;99.90;;;;;;4591238;19;19910;-33
2022/08/04 06:47:20;;;;;;;;;;;21.70;99.90;;;;;;4591686;19;19995;-32
2022/08/04 06:48:50;;;;;;;;;;;21.70;99.90;;;;;;4591394;19;20242;-33
2022/08/04 06:50:24;;;;;;;;;;;21.60;99.90;;;;;;4591416;19;20328;-33
2022/08/04 06:51:55;;;;;;;;;;;21.50;99.90;;;;;;4590333;19;19919;-33
2022/08/04 06:53:26;;;;;;;;;;;21.50;99.90;;;;;;4590556;19;19922;-35
2022/08/04 06:54:57;;;;;;;;;;;21.60;99.90;;;;;;4588609;19;20389;-33
2022/08/04 06:56:28;;;;;;;;;;;21.60;99.90;;;;;;4590822;19;19922;-34
2022/08/04 06:58:00;;;;;;;;;;;21.60;99.90;;;;;;4591721;19;19936;-32
2022/08/04 06:59:31;;;;;;;;;;;21.60;99.90;;;;;;4592059;19;19923;-32
2022/08/04 07:01:02;;;;;;;;;;;21.60;99.90;;;;;;4591628;19;20230;-33
2022/08/04 07:02:33;;;;;;;;;;;21.70;99.90;;;;;;4590489;19;19938;-33
2022/08/04 07:04:07;;;;;;;;;;;21.70;99.90;;;;;;4590522;19;19919;-33
2022/08/04 07:05:39;;;;;;;;;;;21.70;99.90;;;;;;4589298;19;20329;-32
2022/08/04 07:07:10;;;;;;;;;;;21.70;99.90;;;;;;4589132;19;19923;-34
2022/08/04 07:08:41;;;;;;;;;;;21.70;99.90;;;;;;4589176;19;19921;-33
2022/08/04 07:10:12;;;;;;;;;;;21.60;99.90;;;;;;4589944;19;20307;-32
2022/08/04 07:11:43;;;;;;;;;;;21.60;99.90;;;;;;4589501;19;19915;-33
2022/08/04 07:13:14;;;;;;;;;;;21.70;99.90;;;;;;4588261;19;19915;-33
2022/08/04 07:14:45;;;;;;;;;;;21.80;99.90;;;;;;4589629;19;20295;-32
2022/08/04 07:16:17;;;;;;;;;;;21.80;99.90;;;;;;4589843;19;19918;-33
2022/08/04 07:17:48;;;;;;;;;;;21.80;99.90;;;;;;4589194;19;19918;-33
2022/08/04 07:19:19;;;;;;;;;;;21.90;99.90;;;;;;4589528;19;19918;-35
2022/08/04 07:20:50;;;;;;;;;;;21.90;99.90;;;;;;4589175;19;19915;-35
2022/08/04 07:22:21;;;;;;;;;;;21.90;99.90;;;;;;4589441;19;19923;-33
2022/08/04 07:23:53;;;;;;;;;;;21.90;99.90;;;;;;4589167;19;19952;-34
2022/08/04 07:25:24;;;;;;;;;;;21.80;99.90;;;;;;4589076;19;19948;-33
2022/08/04 07:26:54;;;;;;;;;;;21.90;99.90;;;;;;4589079;19;19919;-33
2022/08/04 07:28:26;;;;;;;;;;;21.90;99.90;;;;;;4589255;19;19997;-33
2022/08/04 07:29:57;;;;;;;;;;;22.00;99.90;;;;;;4589045;19;20344;-33
2022/08/04 07:31:28;;;;;;;;;;;22.00;99.90;;;;;;4589022;19;19907;-33
2022/08/04 07:33:00;;;;;;;;;;;22.10;99.90;;;;;;4587967;19;19915;-33
2022/08/04 07:34:31;;;;;;;;;;;22.10;99.90;;;;;;4588664;19;19984;-33
2022/08/04 07:36:02;;;;;;;;;;;22.10;99.90;;;;;;4588718;19;19994;-33
2022/08/04 07:37:33;;;;;;;;;;;22.20;99.90;;;;;;4588741;19;20292;-33
2022/08/04 07:39:04;;;;;;;;;;;22.30;99.90;;;;;;4589385;19;19919;-33
2022/08/04 07:40:35;;;;;;;;;;;22.30;99.90;;;;;;4588936;19;19922;-33
2022/08/04 07:42:06;;;;;;;;;;;22.30;99.90;;;;;;4588798;19;20234;-33
2022/08/04 07:43:37;;;;;;;;;;;22.30;99.90;;;;;;4587301;19;19922;-33
2022/08/04 07:45:08;;;;;;;;;;;22.20;99.90;;;;;;4588842;19;19919;-33
2022/08/04 07:46:39;;;;;;;;;;;22.20;99.90;;;;;;4588519;19;19915;-33
2022/08/04 07:48:10;;;;;;;;;;;22.30;99.90;;;;;;4588824;19;19978;-32
2022/08/04 07:49:41;;;;;;;;;;;22.30;99.90;;;;;;4588458;19;20002;-33
2022/08/04 07:51:12;;;;;;;;;;;22.50;99.90;;;;;;4588608;19;19936;-34
2022/08/04 07:52:43;;;;;;;;;;;22.50;99.90;;;;;;4587558;19;19911;-35
2022/08/04 07:54:14;;;;;;;;;;;22.60;99.90;;;;;;4588682;19;19918;-32
2022/08/04 07:55:45;;;;;;;;;;;22.70;99.90;;;;;;4589063;19;19911;-35
2022/08/04 07:57:17;;;;;;;;;;;22.60;99.90;;;;;;4588480;19;19915;-33
2022/08/04 07:58:48;;;;;;;;;;;22.70;99.90;;;;;;4588600;19;19911;-33
2022/08/04 08:00:19;;;;;;;;;;;22.70;99.90;;;;;;4588948;19;19923;-32
2022/08/04 08:01:50;;;;;;;;;;;22.90;99.90;;;;;;4588997;19;19931;-35
2022/08/04 08:03:21;;;;;;;;;;;22.90;99.90;;;;;;4588573;19;19911;-34
2022/08/04 08:04:52;;;;;;;;;;;22.80;99.90;;;;;;4589888;19;19915;-33
2022/08/04 08:06:23;;;;;;;;;;;22.80;99.90;;;;;;4591215;19;19928;-33
2022/08/04 08:07:55;;;;;;;;;;;22.90;99.90;;;;;;4589431;19;19911;-32
2022/08/04 08:09:26;;;;;;;;;;;23.10;99.90;;;;;;4589790;19;19919;-33
2022/08/04 08:10:57;;;;;;;;;;;23.10;99.90;;;;;;4590633;19;20038;-33
2022/08/04 08:12:29;;;;;;;;;;;23.10;99.90;;;;;;4590503;19;20321;-35
2022/08/04 08:14:00;;;;;;;;;;;23.00;99.90;;;;;;4589332;19;19915;-32
2022/08/04 08:15:31;;;;;;;;;;;23.00;99.90;;;;;;4590113;19;19926;-33
2022/08/04 08:17:02;;;;;;;;;;;23.10;99.90;;;;;;4589222;19;19919;-33
2022/08/04 08:18:33;;;;;;;;;;;23.20;99.90;;;;;;4590019;19;19922;-32
2022/08/04 08:20:08;;;;;;;;;;;23.20;99.90;;;;;;4590034;19;19915;-32
2022/08/04 08:21:39;;;;;;;;;;;23.30;99.90;;;;;;4590833;19;19932;-33
2022/08/04 08:23:10;;;;;;;;;;;23.40;99.90;;;;;;4591140;19;19915;-33
2022/08/04 08:24:42;;;;;;;;;;;23.50;99.90;;;;;;4591076;19;19922;-32
2022/08/04 08:26:13;;;;;;;;;;;23.50;99.90;;;;;;4590441;19;19935;-33
2022/08/04 08:27:44;;;;;;;;;;;23.60;99.90;;;;;;4590325;19;19915;-33
2022/08/04 08:29:15;;;;;;;;;;;23.80;99.90;;;;;;4591012;19;19918;-33
2022/08/04 08:30:46;;;;;;;;;;;23.70;99.90;;;;;;4590035;19;19923;-32
2022/08/04 08:32:17;;;;;;;;;;;23.70;99.90;;;;;;4590116;19;19918;-32
2022/08/04 08:33:48;;;;;;;;;;;23.70;99.90;;;;;;4589344;19;19915;-33
2022/08/04 08:35:19;;;;;;;;;;;23.70;99.90;;;;;;4589314;19;19943;-31
2022/08/04 08:36:52;;;;;;;;;;;23.80;99.90;;;;;;4589576;19;19929;-35
2022/08/04 08:38:35;;;;;;;;;;;23.90;99.90;;;;;;4588867;19;20241;-33
2022/08/04 08:40:22;;;;;;;;;;;24.00;99.90;;;;;;4590358;19;19907;-31
2022/08/04 08:42:02;;;;;;;;;;;24.10;99.90;;;;;;4590017;19;19938;-33
2022/08/04 08:43:33;;;;;;;;;;;24.20;99.90;;;;;;4590943;19;19915;-32
2022/08/04 08:45:07;;;;;;;;;;;24.10;99.90;;;;;;4590052;19;19940;-33
2022/08/04 08:46:44;;;;;;;;;;;24.10;99.90;;;;;;4590444;19;19922;-32
2022/08/04 08:48:15;;;;;;;;;;;24.10;99.90;;;;;;4590319;19;19919;-33
2022/08/04 08:49:49;;;;;;;;;;;24.20;99.90;;;;;;4590011;19;19918;-32
2022/08/04 08:51:30;;;;;;;;;;;24.30;99.90;;;;;;4590460;19;19911;-32
2022/08/04 08:53:03;;;;;;;;;;;24.40;99.90;;;;;;4589096;19;19919;-33
2022/08/04 08:54:55;;;;;;;;;;;24.30;99.90;;;;;;4588956;19;19928;-32
2022/08/04 08:56:35;;;;;;;;;;;24.30;99.90;;;;;;4591257;19;20252;-33
2022/08/04 08:58:24;;;;;;;;;;;24.30;99.90;;;;;;4593082;19;19915;-32
2022/08/04 09:00:01;;;;;;;;;;;24.10;99.90;;;;;;4594224;19;19915;-33
2022/08/04 09:01:51;;;;;;;;;;;24.20;99.90;;;;;;4594333;19;20272;-33
2022/08/04 09:03:21;;;;;;;;;;;24.40;99.90;;;;;;4594389;19;19942;-35
2022/08/04 09:04:52;;;;;;;;;;;24.40;99.90;;;;;;4594691;19;20257;-32
2022/08/04 09:06:26;;;;;;;;;;;24.40;99.90;;;;;;4594317;19;20013;-34
2022/08/04 09:08:04;;;;;;;;;;;24.10;99.90;;;;;;4593136;19;19950;-32
2022/08/04 09:09:37;;;;;;;;;;;23.90;99.90;;;;;;4592944;19;19922;-32
2022/08/04 09:11:09;;;;;;;;;;;23.70;99.90;;;;;;4593924;19;19926;-33
2022/08/04 09:12:43;;;;;;;;;;;23.90;99.90;;;;;;4593008;19;19982;-35
2022/08/04 09:14:23;;;;;;;;;;;23.90;99.90;;;;;;4593540;19;19956;-32
2022/08/04 09:15:53;;;;;;;;;;;23.90;99.90;;;;;;4594199;19;19926;-33
2022/08/04 09:17:43;;;;;;;;;;;24.00;99.90;;;;;;4594461;19;19986;-32
2022/08/04 09:19:26;;;;;;;;;;;24.10;99.90;;;;;;4594509;19;19918;-32